createdAt,value
2019-04-28T00:02:22.462Z,80.13
2019-04-28T00:07:27.934Z,80.19
2019-04-28T00:12:33.337Z,79.87
2019-04-28T00:17:39.180Z,80.35
2019-04-28T00:22:53.138Z,79.86
2019-04-28T00:27:58.558Z,80.56
2019-04-28T00:33:04.105Z,80.22
2019-04-28T00:38:11.515Z,79.47
2019-04-28T00:43:17.828Z,79.50
2019-04-28T00:48:23.796Z,80.22
2019-04-28T00:53:31.088Z,80.03
2019-04-28T00:58:36.385Z,79.21
2019-04-28T01:03:42.132Z,79.35
2019-04-28T01:08:47.561Z,79.22
2019-04-28T01:13:52.845Z,78.31
2019-04-28T01:19:06.543Z,79.06
2019-04-28T01:24:13.284Z,79.13
2019-04-28T01:29:19.518Z,78.28
2019-04-28T01:34:25.220Z,78.17
2019-04-28T01:39:30.543Z,78.38
2019-04-28T01:44:35.883Z,78.33
2019-04-28T01:49:41.760Z,79.37
2019-04-28T01:54:47.040Z,80.11
2019-04-28T01:59:52.252Z,79.50
2019-04-28T02:04:59.691Z,79.82
2019-04-28T02:10:05.321Z,79.94
2019-04-28T02:15:10.956Z,79.80
2019-04-28T02:20:20.162Z,78.60
2019-04-28T02:25:25.547Z,78.71
2019-04-28T02:30:42.347Z,77.58
2019-04-28T02:35:38.275Z,76.84
2019-04-28T02:40:43.612Z,76.71
2019-04-28T02:45:52.949Z,77.07
2019-04-28T02:51:02.273Z,78.12
2019-04-28T02:56:11.049Z,78.60
2019-04-28T03:01:22.844Z,78.91
2019-04-28T03:06:22.560Z,79.33
2019-04-28T03:11:27.800Z,79.77
2019-04-28T03:16:33.072Z,80.08
2019-04-28T03:21:41.382Z,78.67
2019-04-28T03:26:53.568Z,79.80
2019-04-28T03:32:28.082Z,78.49
2019-04-28T03:37:14.986Z,77.91
2019-04-28T03:42:21.922Z,77.91
2019-04-28T03:47:27.421Z,78.07
2019-04-28T03:52:32.996Z,78.70
2019-04-28T03:57:41.007Z,77.65
2019-04-28T04:02:45.457Z,77.98
2019-04-28T04:07:50.881Z,77.61
2019-04-28T04:13:07.643Z,77.74
2019-04-28T04:18:17.965Z,78.20
2019-04-28T04:23:26.028Z,78.26
2019-04-28T04:28:31.398Z,79.17
2019-04-28T04:33:36.757Z,78.72
2019-04-28T04:38:45.824Z,80.03
2019-04-28T04:43:51.260Z,78.57
2019-04-28T04:48:56.923Z,78.82
2019-04-28T04:54:02.134Z,79.20
2019-04-28T04:59:07.560Z,80.25
2019-04-28T05:04:25.179Z,80.25
2019-04-28T05:09:31.174Z,79.47
2019-04-28T05:14:37.126Z,78.46
2019-04-28T05:19:43.241Z,78.41
2019-04-28T05:25:13.743Z,78.33
2019-04-28T05:30:20.423Z,79.24
2019-04-28T05:35:25.783Z,79.66
2019-04-28T05:40:31.038Z,78.68
2019-04-28T05:45:36.754Z,79.73
2019-04-28T05:51:01.856Z,79.29
2019-04-28T05:56:15.509Z,78.43
2019-04-28T06:01:30.342Z,78.68
2019-04-28T06:06:40.498Z,78.29
2019-04-28T06:11:46.038Z,77.03
2019-04-28T06:16:51.399Z,76.23
2019-04-28T06:21:56.710Z,75.32
2019-04-28T06:27:02.996Z,75.99
2019-04-28T06:32:08.675Z,75.02
2019-04-28T06:37:14.284Z,76.79
2019-04-28T06:42:19.784Z,75.99
2019-04-28T06:47:25.117Z,76.82
2019-04-28T06:52:30.747Z,76.50
2019-04-28T06:57:36.021Z,74.21
2019-04-28T07:02:41.300Z,73.85
2019-04-28T07:07:46.615Z,73.45
2019-04-28T07:12:51.960Z,73.96
2019-04-28T07:17:57.299Z,73.36
2019-04-28T07:23:02.697Z,72.52
2019-04-28T07:28:08.069Z,71.58
2019-04-28T07:33:13.774Z,70.87
2019-04-28T07:38:19.367Z,70.98
2019-04-28T07:43:24.720Z,69.76
2019-04-28T07:48:30.151Z,69.85
2019-04-28T07:53:55.351Z,71.17
2019-04-28T07:59:00.680Z,70.99
2019-04-28T08:04:07.413Z,71.58
2019-04-28T08:09:14.906Z,69.84
2019-04-28T08:14:20.349Z,70.96
2019-04-28T08:19:25.753Z,71.09
2019-04-28T08:24:31.266Z,69.84
2019-04-28T08:29:36.615Z,70.91
2019-04-28T08:34:42.457Z,69.78
2019-04-28T08:39:47.765Z,67.40
2019-04-28T08:44:52.979Z,68.72
2019-04-28T08:49:58.506Z,66.31
2019-04-28T08:55:04.021Z,67.76
2019-04-28T09:00:11.185Z,67.09
2019-04-28T09:05:16.718Z,67.03
2019-04-28T09:10:22.498Z,67.40
2019-04-28T09:15:28.006Z,66.67
2019-04-28T09:20:33.753Z,66.77
2019-04-28T09:25:39.948Z,66.12
2019-04-28T09:30:45.589Z,66.25
2019-04-28T09:35:51.022Z,66.44
2019-04-28T09:40:56.748Z,64.85
2019-04-28T09:46:04.566Z,63.11
2019-04-28T09:51:09.948Z,63.06
2019-04-28T09:56:15.194Z,63.13
2019-04-28T10:01:20.837Z,62.66
2019-04-28T10:06:26.147Z,62.31
2019-04-28T10:11:31.814Z,60.55
2019-04-28T10:16:37.300Z,60.79
2019-04-28T10:21:43.355Z,61.11
2019-04-28T10:26:49.676Z,60.68
2019-04-28T10:31:54.902Z,61.05
2019-04-28T10:37:00.227Z,59.72
2019-04-28T10:42:06.879Z,60.21
2019-04-28T10:47:12.215Z,59.28
2019-04-28T10:52:17.482Z,59.03
2019-04-28T10:57:22.993Z,58.22
2019-04-28T11:02:28.317Z,58.85
2019-04-28T11:07:34.198Z,57.33
2019-04-28T11:12:39.935Z,55.97
2019-04-28T11:17:45.624Z,54.53
2019-04-28T11:22:51.382Z,54.71
2019-04-28T11:27:56.785Z,52.41
2019-04-28T11:33:14.972Z,49.93
2019-04-28T11:38:20.316Z,52.05
2019-04-28T11:43:25.617Z,49.20
2019-04-28T11:48:30.966Z,51.01
2019-04-28T11:53:36.519Z,50.43
2019-04-28T11:58:41.759Z,48.17
2019-04-28T12:03:48.825Z,46.40
2019-04-28T12:08:57.197Z,47.25
2019-04-28T12:14:30.406Z,46.62
2019-04-28T12:19:45.586Z,41.68
2019-04-28T12:24:50.874Z,42.06
2019-04-28T12:29:56.111Z,35.98
2019-04-28T12:35:01.501Z,37.02
2019-04-28T12:40:08.093Z,36.33
2019-04-28T12:45:13.650Z,34.43
2019-04-28T12:50:24.559Z,33.53
2019-04-28T12:55:31.082Z,39.70
2019-04-28T13:00:54.120Z,42.70
2019-04-28T13:06:05.636Z,46.06
2019-04-28T13:11:07.883Z,47.49
2019-04-28T13:16:13.290Z,49.81
2019-04-28T13:21:18.783Z,50.90
2019-04-28T13:26:24.105Z,47.63
2019-04-28T13:31:29.435Z,43.48
2019-04-28T13:36:35.047Z,41.29
2019-04-28T13:41:40.888Z,45.03
2019-04-28T13:46:46.402Z,46.03
2019-04-28T13:51:51.650Z,47.26
2019-04-28T13:56:57.004Z,47.65
2019-04-28T14:02:12.811Z,48.74
2019-04-28T14:07:18.257Z,50.31
2019-04-28T14:12:23.783Z,51.00
2019-04-28T14:17:29.568Z,51.44
2019-04-28T14:22:34.938Z,50.75
2019-04-28T14:27:40.355Z,48.49
2019-04-28T14:32:45.670Z,36.89
2019-04-28T14:37:51.029Z,32.20
2019-04-28T14:42:56.282Z,30.58
2019-04-28T14:48:02.703Z,27.94
2019-04-28T14:53:08.911Z,25.78
2019-04-28T14:58:14.555Z,24.93
2019-04-28T15:03:22.856Z,24.31
2019-04-28T15:09:02.243Z,23.92
2019-04-28T15:14:09.086Z,23.81
2019-04-28T15:19:14.481Z,22.98
2019-04-28T15:24:19.847Z,21.48
2019-04-28T15:29:25.760Z,22.86
2019-04-28T15:34:31.021Z,23.57
2019-04-28T15:39:36.668Z,22.61
2019-04-28T15:44:42.090Z,21.97
2019-04-28T15:49:47.451Z,23.11
2019-04-28T15:54:52.702Z,23.68
2019-04-28T15:59:58.352Z,28.45
2019-04-28T16:05:03.935Z,30.53
2019-04-28T16:10:10.854Z,33.07
2019-04-28T16:15:16.249Z,35.47
2019-04-28T16:20:22.011Z,37.86
2019-04-28T16:25:27.758Z,39.20
2019-04-28T16:30:33.106Z,42.16
2019-04-28T16:35:40.065Z,41.93
2019-04-28T16:40:48.191Z,44.76
2019-04-28T16:45:53.465Z,44.88
2019-04-28T16:50:58.699Z,47.74
2019-04-28T16:56:26.330Z,48.38
2019-04-28T17:01:56.603Z,49.73
2019-04-28T17:07:01.883Z,50.64
2019-04-28T17:12:07.223Z,51.35
2019-04-28T17:17:12.615Z,50.40
2019-04-28T17:22:18.920Z,50.19
2019-04-28T17:27:24.321Z,50.43
2019-04-28T17:32:30.044Z,50.69
2019-04-28T17:37:35.615Z,51.24
2019-04-28T17:42:41.028Z,51.46
2019-04-28T17:47:46.385Z,50.96
2019-04-28T17:52:51.633Z,51.99
2019-04-28T17:57:56.877Z,53.68
2019-04-28T18:03:11.909Z,54.26
2019-04-28T18:08:21.223Z,53.96
2019-04-28T18:13:24.374Z,55.59
2019-04-28T18:18:52.437Z,57.13
2019-04-28T18:23:58.060Z,58.70
2019-04-28T18:29:03.837Z,60.04
2019-04-28T18:34:40.428Z,60.73
2019-04-28T18:40:03.780Z,61.68
2019-04-28T18:45:10.773Z,63.18
2019-04-28T18:50:18.353Z,62.93
2019-04-28T18:55:24.245Z,63.92
2019-04-28T19:00:31.361Z,65.26
2019-04-28T19:05:38.925Z,66.40
2019-04-28T19:11:04.211Z,66.10
2019-04-28T19:16:32.429Z,66.76
2019-04-28T19:21:38.763Z,68.41
2019-04-28T19:26:44.247Z,68.94
2019-04-28T19:31:49.656Z,68.97
2019-04-28T19:36:55.219Z,69.70
2019-04-28T19:42:00.747Z,70.06
2019-04-28T19:47:06.361Z,70.55
2019-04-28T19:52:11.737Z,70.90
2019-04-28T19:57:26.961Z,72.04
2019-04-28T20:02:34.875Z,73.69
2019-04-28T20:07:41.012Z,73.08
2019-04-28T20:12:47.398Z,72.85
2019-04-28T20:17:52.757Z,73.33
2019-04-28T20:22:58.174Z,73.70
2019-04-28T20:28:03.607Z,74.70
2019-04-28T20:33:09.869Z,74.69
2019-04-28T20:38:24.476Z,75.11
2019-04-28T20:43:29.883Z,75.82
2019-04-28T20:48:35.377Z,75.50
2019-04-28T20:53:40.727Z,75.71
2019-04-28T20:58:46.078Z,76.06
2019-04-28T21:03:51.370Z,77.25
2019-04-28T21:08:56.914Z,77.12
2019-04-28T21:14:02.425Z,76.67
2019-04-28T21:19:07.934Z,76.06
2019-04-28T21:24:13.294Z,76.63
2019-04-28T21:29:19.998Z,76.85
2019-04-28T21:34:26.888Z,77.15
2019-04-28T21:39:32.596Z,77.26
2019-04-28T21:44:57.067Z,77.24
2019-04-28T21:50:02.404Z,77.16
2019-04-28T21:55:07.808Z,77.59
2019-04-28T22:00:14.804Z,78.72
2019-04-28T22:05:38.552Z,78.41
2019-04-28T22:10:43.815Z,78.86
2019-04-28T22:15:49.123Z,77.73
2019-04-28T22:20:54.624Z,77.96
2019-04-28T22:26:00.186Z,78.19
2019-04-28T22:31:05.557Z,78.84
2019-04-28T22:36:10.926Z,78.78
2019-04-28T22:41:16.714Z,78.89
2019-04-28T22:46:22.184Z,79.17
2019-04-28T22:51:27.714Z,79.44
2019-04-28T22:56:42.021Z,79.64
2019-04-28T23:01:57.299Z,79.45
2019-04-28T23:07:02.584Z,79.11
2019-04-28T23:12:09.643Z,78.81
2019-04-28T23:17:16.885Z,79.04
2019-04-28T23:22:46.978Z,79.48
2019-04-28T23:27:47.334Z,79.53
2019-04-28T23:32:52.667Z,79.15
2019-04-28T23:37:58.320Z,79.26
2019-04-28T23:43:07.199Z,79.60
2019-04-28T23:48:12.425Z,79.80
2019-04-28T23:53:18.574Z,79.57
